Observation data for Abernathy on 12/09/2018      Previous  Date  Next       Current Mesonet Observations  Soil Data  Daily Summary Page  Observations in Plain Language
KARS 090600Z 29006KT M09/M09 A3031 RMK A01 T10921093  RH  099%=      5-min Rain = 0
KARS 090605Z 29006KT M09/M09 A3031 RMK A01 T10921092  RH  099%=      5-min Rain = 0
KARS 090610Z 29006KT M09/M09 A3031 RMK A01 T10921093  RH  099%=      5-min Rain = 0
KARS 090615Z 29006KT M09/M09 A3031 RMK A01 T10931094  RH  099%=      5-min Rain = 0
KARS 090620Z 29006KT M09/M09 A303 RMK A01 T10921093  RH  099%=      5-min Rain = 0
KARS 090625Z 29007KT M09/M09 A303 RMK A01 T10911091  RH  099%=      5-min Rain = 0
KARS 090630Z 29007KT M09/M09 A3031 RMK A01 T10901090  RH  099%=      5-min Rain = 0
KARS 090635Z 29006KT M09/M09 A3031 RMK A01 T10911092  RH  099%=      5-min Rain = 0
KARS 090640Z 29006KT M09/M09 A303 RMK A01 T10911092  RH  099%=      5-min Rain = 0
KARS 090645Z 29005KT M09/M09 A303 RMK A01 T10921093  RH  099%=      5-min Rain = 0
KARS 090650Z 29006KT M09/M09 A303 RMK A01 T10921093  RH  099%=      5-min Rain = 0
KARS 090655Z 30006KT M09/M09 A303 RMK A01 T10911092  RH  099%=      5-min Rain = 0
KARS 090700Z 30006KT M09/M09 A303 RMK A01 T10911092  RH  099%=      5-min Rain = 0
KARS 090705Z 30005KT M09/M09 A303 RMK A01 T10911091  RH  099%=      5-min Rain = 0
KARS 090710Z 30004KT M09/M09 A303 RMK A01 T10921093  RH  099%=      5-min Rain = 0
KARS 090715Z 30005KT M09/M10 A303 RMK A01 T10941095  RH  098%=      5-min Rain = 0
KARS 090720Z 30004KT M09/M09 A303 RMK A01 T10931094  RH  099%=      5-min Rain = 0
KARS 090725Z 30005KT M09/M10 A303 RMK A01 T10931095  RH  099%=      5-min Rain = 0
KARS 090730Z 29006KT M09/M09 A303 RMK A01 T10921093  RH  099%=      5-min Rain = 0
KARS 090735Z 29006KT M09/M09 A303 RMK A01 T10911091  RH  099%=      5-min Rain = 0
KARS 090740Z 30005KT M09/M09 A303 RMK A01 T10891089  RH  099%=      5-min Rain = 0
KARS 090745Z 30005KT M09/M09 A3029 RMK A01 T10881088  RH  099%=      5-min Rain = 0
KARS 090750Z 30005KT M09/M09 A3029 RMK A01 T10871088  RH  099%=      5-min Rain = 0
KARS 090755Z 30005KT M09/M09 A3029 RMK A01 T10871088  RH  099%=      5-min Rain = 0
KARS 090800Z 30006KT M09/M09 A3029 RMK A01 T10871087  RH  099%=      5-min Rain = 0
KARS 090805Z 30005KT M09/M09 A3029 RMK A01 T10881090  RH  099%=      5-min Rain = 0
KARS 090810Z 30005KT M09/M09 A3029 RMK A01 T10901092  RH  099%=      5-min Rain = 0
KARS 090815Z 30005KT M09/M09 A3029 RMK A01 T10921093  RH  099%=      5-min Rain = 0
KARS 090820Z 30005KT M09/M09 A3029 RMK A01 T10911092  RH  099%=      5-min Rain = 0
KARS 090825Z 30006KT M09/M09 A3029 RMK A01 T10901090  RH  099%=      5-min Rain = 0
KARS 090830Z 30005KT M09/M09 A3029 RMK A01 T10901091  RH  099%=      5-min Rain = 0
KARS 090835Z 30005KT M09/M09 A3029 RMK A01 T10911093  RH  099%=      5-min Rain = 0
KARS 090840Z 30005KT M09/M09 A3029 RMK A01 T10911093  RH  099%=      5-min Rain = 0
KARS 090845Z 30005KT M09/M09 A3029 RMK A01 T10911092  RH  099%=      5-min Rain = 0
KARS 090850Z 30005KT M09/M09 A3029 RMK A01 T10921093  RH  099%=      5-min Rain = 0
KARS 090855Z 30005KT M09/M09 A3029 RMK A01 T10921094  RH  099%=      5-min Rain = 0
KARS 090900Z 30005KT M09/M09 A3029 RMK A01 T10921094  RH  099%=      5-min Rain = 0
KARS 090905Z 30005KT M09/M09 A3029 RMK A01 T10921093  RH  099%=      5-min Rain = 0
KARS 090910Z 31005KT M09/M09 A3029 RMK A01 T10931094  RH  099%=      5-min Rain = 0
KARS 090915Z 31005KT M09/M10 A3029 RMK A01 T10941096  RH  098%=      5-min Rain = 0
KARS 090920Z 31005KT M10/M10 A3029 RMK A01 T10961098  RH  098%=      5-min Rain = 0
KARS 090925Z 31004KT M10/M10 A303 RMK A01 T10981101  RH  098%=      5-min Rain = 0
KARS 090930Z 32004KT M10/M10 A303 RMK A01 T11001102  RH  098%=      5-min Rain = 0
KARS 090935Z 32004KT M10/M10 A303 RMK A01 T11011103  RH  098%=      5-min Rain = 0
KARS 090940Z 33004KT M10/M10 A303 RMK A01 T11021104  RH  098%=      5-min Rain = 0
KARS 090945Z 33004KT M10/M10 A303 RMK A01 T11021104  RH  098%=      5-min Rain = 0
KARS 090950Z 33004KT M10/M10 A303 RMK A01 T11011103  RH  098%=      5-min Rain = 0
KARS 090955Z 33004KT M10/M10 A303 RMK A01 T11011102  RH  098%=      5-min Rain = 0
KARS 091000Z 33003KT M10/M10 A303 RMK A01 T11011102  RH  098%=      5-min Rain = 0
KARS 091005Z 33003KT M10/M10 A303 RMK A01 T11011102  RH  098%=      5-min Rain = 0
KARS 091010Z 34004KT M10/M10 A303 RMK A01 T11011102  RH  098%=      5-min Rain = 0
KARS 091015Z 34004KT M10/M10 A303 RMK A01 T11011102  RH  098%=      5-min Rain = 0
KARS 091020Z 34004KT M10/M10 A303 RMK A01 T11001102  RH  098%=      5-min Rain = 0
KARS 091025Z 34004KT M10/M10 A3029 RMK A01 T11001101  RH  099%=      5-min Rain = 0
KARS 091030Z 34004KT M10/M10 A3029 RMK A01 T10991100  RH  099%=      5-min Rain = 0
KARS 091035Z 34004KT M10/M10 A3029 RMK A01 T10981099  RH  099%=      5-min Rain = 0
KARS 091040Z 35005KT M10/M10 A3029 RMK A01 T10971098  RH  099%=      5-min Rain = 0
KARS 091045Z 34006KT M09/M09 A3029 RMK A01 T10941094  RH  099%=      5-min Rain = 0
KARS 091050Z 34006KT M09/M09 A3029 RMK A01 T10891089  RH  100%=      5-min Rain = 0
KARS 091055Z 35006KT M09/M09 A3029 RMK A01 T10861086  RH  100%=      5-min Rain = 0
KARS 091100Z 34005KT M09/M09 A3029 RMK A01 T10851085  RH  100%=      5-min Rain = 0
KARS 091105Z 34006KT M09/M09 A3029 RMK A01 T10851086  RH  100%=      5-min Rain = 0
KARS 091110Z 35006KT M09/M09 A3029 RMK A01 T10851085  RH  100%=      5-min Rain = 0
KARS 091115Z 35007KT M08/M08 A3029 RMK A01 T10841084  RH  100%=      5-min Rain = 0
KARS 091120Z 35007KT M08/M08 A3029 RMK A01 T10831083  RH  100%=      5-min Rain = 0
KARS 091125Z 35007KT M08/M08 A3029 RMK A01 T10811080  RH  100%=      5-min Rain = 0
KARS 091130Z 35006KT M08/M08 A3029 RMK A01 T10781078  RH  100%=      5-min Rain = 0
KARS 091135Z 35006KT M08/M08 A303 RMK A01 T10771077  RH  100%=      5-min Rain = 0
KARS 091140Z 35006KT M08/M08 A303 RMK A01 T10771077  RH  100%=      5-min Rain = 0
KARS 091145Z 35006KT M08/M08 A303 RMK A01 T10781078  RH  100%=      5-min Rain = 0
KARS 091150Z 35006KT M08/M08 A303 RMK A01 T10791079  RH  100%=      5-min Rain = 0
KARS 091155Z 35006KT M08/M08 A303 RMK A01 T10791079  RH  100%=      5-min Rain = 0
KARS 091200Z 35006KT M08/M08 A303 RMK A01 T10781078  RH  100%=      5-min Rain = 0
KARS 091205Z 35005KT M08/M08 A303 RMK A01 T10781078  RH  100%=      5-min Rain = 0
KARS 091210Z 34005KT M08/M08 A3031 RMK A01 T10791079  RH  100%=      5-min Rain = 0
KARS 091215Z 34005KT M08/M08 A303 RMK A01 T10811081  RH  099%=      5-min Rain = 0
KARS 091220Z 33003KT M08/M08 A3031 RMK A01 T10831084  RH  099%=      5-min Rain = 0
KARS 091225Z 32003KT M09/M09 A3031 RMK A01 T10851086  RH  099%=      5-min Rain = 0
KARS 091230Z 33004KT M09/M09 A3031 RMK A01 T10881089  RH  099%=      5-min Rain = 0
KARS 091235Z 33004KT M09/M09 A3031 RMK A01 T10911092  RH  099%=      5-min Rain = 0
KARS 091240Z 31003KT M09/M09 A3032 RMK A01 T10931094  RH  099%=      5-min Rain = 0
KARS 091245Z 33004KT M10/M10 A3032 RMK A01 T10951096  RH  099%=      5-min Rain = 0
KARS 091250Z 32003KT M09/M10 A3032 RMK A01 T10941095  RH  099%=      5-min Rain = 0
KARS 091255Z 30004KT M10/M10 A3033 RMK A01 T10971099  RH  098%=      5-min Rain = 0
KARS 091300Z 31004KT M10/M11 A3033 RMK A01 T11031106  RH  097%=      5-min Rain = 0
KARS 091305Z 31004KT M11/M11 A3033 RMK A01 T11061109  RH  097%=      5-min Rain = 0
KARS 091310Z 31004KT M11/M11 A3033 RMK A01 T11051107  RH  098%=      5-min Rain = 0
KARS 091315Z 31004KT M10/M11 A3033 RMK A01 T11041106  RH  098%=      5-min Rain = 0
KARS 091320Z 32004KT M10/M11 A3033 RMK A01 T11041106  RH  098%=      5-min Rain = 0
KARS 091325Z 33004KT M11/M11 A3033 RMK A01 T11051107  RH  098%=      5-min Rain = 0
KARS 091330Z 33004KT M11/M11 A3034 RMK A01 T11071109  RH  097%=      5-min Rain = 0
KARS 091335Z 33004KT M11/M11 A3034 RMK A01 T11091112  RH  097%=      5-min Rain = 0
KARS 091340Z 33004KT M11/M11 A3034 RMK A01 T11101113  RH  097%=      5-min Rain = 0
KARS 091345Z 33004KT M11/M11 A3034 RMK A01 T11111114  RH  097%=      5-min Rain = 0
KARS 091350Z 33004KT M11/M11 A3034 RMK A01 T11111113  RH  098%=      5-min Rain = 0
KARS 091355Z 33004KT M11/M11 A3035 RMK A01 T11091111  RH  098%=      5-min Rain = 0
KARS 091400Z 33003KT M11/M11 A3035 RMK A01 T11061109  RH  098%=      5-min Rain = 0
KARS 091405Z 33003KT M10/M11 A3035 RMK A01 T11031105  RH  098%=      5-min Rain = 0
KARS 091410Z 33003KT M10/M10 A3035 RMK A01 T11001102  RH  098%=      5-min Rain = 0
KARS 091415Z 33003KT M10/M10 A3036 RMK A01 T10951097  RH  098%=      5-min Rain = 0
KARS 091420Z 33003KT M09/M09 A3036 RMK A01 T10921094  RH  098%=      5-min Rain = 0
KARS 091425Z 33003KT M09/M09 A3036 RMK A01 T10871089  RH  098%=      5-min Rain = 0
KARS 091430Z 33003KT M08/M08 A3036 RMK A01 T10811083  RH  099%=      5-min Rain = 0
KARS 091435Z 33002KT M08/M08 A3036 RMK A01 T10761077  RH  099%=      5-min Rain = 0
KARS 091440Z 32003KT M07/M07 A3036 RMK A01 T10721073  RH  099%=      5-min Rain = 0
KARS 091445Z 32003KT M07/M08 A3036 RMK A01 T10741076  RH  098%=      5-min Rain = 0
KARS 091450Z 32002KT M08/M08 A3037 RMK A01 T10771079  RH  098%=      5-min Rain = 0
KARS 091455Z 33002KT M08/M08 A3037 RMK A01 T10761077  RH  099%=      5-min Rain = 0
KARS 091500Z 35002KT M07/M07 A3037 RMK A01 T10711072  RH  099%=      5-min Rain = 0
KARS 091505Z 35003KT M07/M07 A3037 RMK A01 T10651066  RH  100%=      5-min Rain = 0
KARS 091510Z 35003KT M06/M06 A3037 RMK A01 T10591060  RH  100%=      5-min Rain = 0
KARS 091515Z 35004KT M06/M06 A3038 RMK A01 T10551056  RH  099%=      5-min Rain = 0
KARS 091520Z 34003KT M06/M06 A3038 RMK A01 T10551056  RH  099%=      5-min Rain = 0
KARS 091525Z 34003KT M05/M06 A3038 RMK A01 T10541055  RH  099%=      5-min Rain = 0
KARS 091530Z 34003KT M05/M05 A3038 RMK A01 T10511052  RH  100%=      5-min Rain = 0
KARS 091535Z 35002KT M05/M05 A3038 RMK A01 T10491050  RH  100%=      5-min Rain = 0
KARS 091540Z 35002KT M05/M05 A3039 RMK A01 T10461047  RH  100%=      5-min Rain = 0
KARS 091545Z 34002KT M04/M05 A3039 RMK A01 T10441045  RH  100%=      5-min Rain = 0
KARS 091550Z 35002KT M04/M04 A3039 RMK A01 T10441044  RH  100%=      5-min Rain = 0
KARS 091555Z 34002KT M04/M04 A3039 RMK A01 T10421043  RH  100%=      5-min Rain = 0
KARS 091600Z 34002KT M04/M04 A3039 RMK A01 T10381038  RH  100%=      5-min Rain = 0
KARS 091605Z 34001KT M03/M03 A3039 RMK A01 T10331033  RH  100%=      5-min Rain = 0
KARS 091610Z 34002KT M03/M03 A3039 RMK A01 T10281029  RH  100%=      5-min Rain = 0
KARS 091615Z 33002KT M03/M03 A3039 RMK A01 T10261027  RH  100%=      5-min Rain = 0
KARS 091620Z 35002KT M02/M03 A3039 RMK A01 T10241025  RH  100%=      5-min Rain = 0
KARS 091625Z 36002KT M02/M02 A3039 RMK A01 T10211022  RH  100%=      5-min Rain = 0
KARS 091630Z 35002KT M02/M02 A3039 RMK A01 T10191020  RH  100%=      5-min Rain = 0
KARS 091635Z 35003KT M02/M02 A3039 RMK A01 T10181019  RH  100%=      5-min Rain = 0
KARS 091640Z 33003KT M02/M02 A304 RMK A01 T10201021  RH  100%=      5-min Rain = 0.01
KARS 091645Z 32002KT M02/M02 A304 RMK A01 T10211022  RH  100%=      5-min Rain = 0
KARS 091650Z 33002KT M02/M02 A304 RMK A01 T10211022  RH  100%=      5-min Rain = 0
KARS 091655Z 30002KT M02/M02 A304 RMK A01 T10191020  RH  100%=      5-min Rain = 0
KARS 091700Z 30002KT M02/M02 A304 RMK A01 T10201021  RH  100%=      5-min Rain = 0
KARS 091705Z 33002KT M02/M02 A304 RMK A01 T10191020  RH  100%=      5-min Rain = 0
KARS 091710Z 32003KT M02/M02 A304 RMK A01 T10151016  RH  100%=      5-min Rain = 0
KARS 091715Z 30003KT M01/M02 A304 RMK A01 T10131015  RH  100%=      5-min Rain = 0
KARS 091720Z 30002KT M01/M01 A304 RMK A01 T10131014  RH  100%=      5-min Rain = 0.01
KARS 091725Z 31002KT M01/M01 A3039 RMK A01 T10111013  RH  100%=      5-min Rain = 0
KARS 091730Z 32002KT M01/M01 A3039 RMK A01 T10081010  RH  100%=      5-min Rain = 0
KARS 091735Z 31002KT M01/M01 A3039 RMK A01 T10051007  RH  100%=      5-min Rain = 0.01
KARS 091740Z 29003KT M01/M01 A3039 RMK A01 T10061007  RH  100%=      5-min Rain = 0
KARS 091745Z 29004KT M01/M01 A3039 RMK A01 T10091010  RH  100%=      5-min Rain = 0
KARS 091750Z 30005KT M01/M01 A3039 RMK A01 T10111012  RH  100%=      5-min Rain = 0
KARS 091755Z 30004KT M01/M01 A3039 RMK A01 T10131014  RH  100%=      5-min Rain = 0
KARS 091800Z 31004KT M01/M01 A3038 RMK A01 T10121013  RH  100%=      5-min Rain = 0
KARS 091805Z 31003KT M01/M01 A3038 RMK A01 T10111012  RH  100%=      5-min Rain = 0.01
KARS 091810Z 31003KT M01/M01 A3038 RMK A01 T10081009  RH  100%=      5-min Rain = 0
KARS 091815Z 32003KT M00/M01 A3038 RMK A01 T10041006  RH  100%=      5-min Rain = 0
KARS 091820Z 32003KT M00/M00 A3037 RMK A01 T10021003  RH  100%=      5-min Rain = 0
KARS 091825Z 30004KT M00/M00 A3037 RMK A01 T10021003  RH  100%=      5-min Rain = 0
KARS 091830Z 30004KT M00/M00 A3037 RMK A01 T10021004  RH  100%=      5-min Rain = 0
KARS 091835Z 30003KT M00/M00 A3037 RMK A01 T10021004  RH  100%=      5-min Rain = 0
KARS 091840Z 31003KT M00/M00 A3036 RMK A01 T10011003  RH  100%=      5-min Rain = 0.01
KARS 091845Z 32003KT 00/00 A3036 RMK A01 T000100-0  RH  100%=      5-min Rain = 0
KARS 091850Z 33003KT 00/00 A3036 RMK A01 T00040002  RH  100%=      5-min Rain = 0.01
KARS 091855Z 29002KT 01/00 A3036 RMK A01 T00060004  RH  100%=      5-min Rain = 0
KARS 091900Z 28003KT 01/00 A3036 RMK A01 T00050003  RH  100%=      5-min Rain = 0
KARS 091905Z 28003KT 00/00 A3036 RMK A01 T00030002  RH  100%=      5-min Rain = 0.01
KARS 091910Z 27003KT 00/00 A3036 RMK A01 T00030001  RH  100%=      5-min Rain = 0
KARS 091915Z 28003KT 00/00 A3035 RMK A01 T00020001  RH  100%=      5-min Rain = 0.01
KARS 091920Z 28003KT 00/00 A3035 RMK A01 T00020001  RH  100%=      5-min Rain = 0
KARS 091925Z 29003KT 00/00 A3035 RMK A01 T00020001  RH  100%=      5-min Rain = 0.01
KARS 091930Z 30003KT 00/00 A3035 RMK A01 T00030001  RH  100%=      5-min Rain = 0
KARS 091935Z 30003KT 00/00 A3035 RMK A01 T00040002  RH  100%=      5-min Rain = 0.01
KARS 091940Z 30003KT 01/00 A3035 RMK A01 T00050003  RH  100%=      5-min Rain = 0
KARS 091945Z 30003KT 01/00 A3035 RMK A01 T00050003  RH  100%=      5-min Rain = 0.01
KARS 091950Z 29004KT 00/00 A3035 RMK A01 T00040002  RH  100%=      5-min Rain = 0
KARS 091955Z 27004KT 00/00 A3035 RMK A01 T00020000  RH  100%=      5-min Rain = 0.01
KARS 092000Z 27003KT 00/M00 A3035 RMK A01 T00011001  RH  100%=      5-min Rain = 0
KARS 092005Z 28003KT 00/00 A3035 RMK A01 T00020000  RH  100%=      5-min Rain = 0.01
KARS 092010Z 28003KT 00/00 A3035 RMK A01 T00020000  RH  100%=      5-min Rain = 0
KARS 092015Z 29003KT 00/00 A3034 RMK A01 T00020001  RH  100%=      5-min Rain = 0.01
KARS 092020Z 28003KT 00/00 A3034 RMK A01 T00030001  RH  100%=      5-min Rain = 0
KARS 092025Z 28003KT 00/00 A3034 RMK A01 T00030001  RH  100%=      5-min Rain = 0.01
KARS 092030Z 28002KT 00/00 A3034 RMK A01 T00030001  RH  100%=      5-min Rain = 0
KARS 092035Z 29002KT 00/00 A3034 RMK A01 T00040002  RH  100%=      5-min Rain = 0
KARS 092040Z 29002KT 01/00 A3034 RMK A01 T00050003  RH  100%=      5-min Rain = 0.01
KARS 092045Z 28002KT 00/00 A3034 RMK A01 T00040003  RH  100%=      5-min Rain = 0
KARS 092050Z 27002KT 00/00 A3034 RMK A01 T00030001  RH  100%=      5-min Rain = 0.01
KARS 092055Z 26002KT 00/00 A3034 RMK A01 T00020001  RH  100%=      5-min Rain = 0
KARS 092100Z 25002KT 00/00 A3034 RMK A01 T000200-0  RH  100%=      5-min Rain = 0
KARS 092105Z 25002KT 00/00 A3034 RMK A01 T00020001  RH  100%=      5-min Rain = 0.01
KARS 092110Z 27001KT 00/00 A3034 RMK A01 T00040002  RH  100%=      5-min Rain = 0
KARS 092115Z 26002KT 00/00 A3034 RMK A01 T00040002  RH  100%=      5-min Rain = 0
KARS 092120Z 26002KT 00/00 A3034 RMK A01 T00020001  RH  100%=      5-min Rain = 0.01
KARS 092125Z 28002KT 00/00 A3034 RMK A01 T00030001  RH  100%=      5-min Rain = 0
KARS 092130Z 27003KT 00/00 A3034 RMK A01 T00020001  RH  100%=      5-min Rain = 0
KARS 092135Z 26003KT 00/00 A3034 RMK A01 T000100-0  RH  100%=      5-min Rain = 0
KARS 092140Z 26003KT 00/M00 A3034 RMK A01 T00011001  RH  100%=      5-min Rain = 0
KARS 092145Z 26003KT 00/00 A3034 RMK A01 T00-000-2  RH  100%=      5-min Rain = 0.01
KARS 092150Z 26003KT 00/00 A3034 RMK A01 T00-000-2  RH  100%=      5-min Rain = 0
KARS 092155Z 24002KT 00/00 A3034 RMK A01 T000000-1  RH  100%=      5-min Rain = 0
KARS 092200Z 22003KT M00/M00 A3034 RMK A01 T10011002  RH  100%=      5-min Rain = 0
KARS 092205Z 24004KT M00/M00 A3034 RMK A01 T10031004  RH  100%=      5-min Rain = 0
KARS 092210Z 24004KT M00/M01 A3034 RMK A01 T10031005  RH  100%=      5-min Rain = 0
KARS 092215Z 24004KT M00/M01 A3034 RMK A01 T10041005  RH  100%=      5-min Rain = 0
KARS 092220Z 24005KT M01/M01 A3034 RMK A01 T10061007  RH  100%=      5-min Rain = 0.01
KARS 092225Z 25005KT M01/M01 A3034 RMK A01 T10061008  RH  100%=      5-min Rain = 0
KARS 092230Z 25006KT M01/M01 A3034 RMK A01 T10071008  RH  100%=      5-min Rain = 0
KARS 092235Z 25006KT M01/M01 A3034 RMK A01 T10071009  RH  100%=      5-min Rain = 0
KARS 092240Z 25006KT M01/M01 A3034 RMK A01 T10081009  RH  100%=      5-min Rain = 0
KARS 092245Z 26006KT M01/M01 A3034 RMK A01 T10081010  RH  100%=      5-min Rain = 0
KARS 092250Z 26005KT M01/M01 A3034 RMK A01 T10081009  RH  100%=      5-min Rain = 0
KARS 092255Z 25005KT M01/M01 A3034 RMK A01 T10081010  RH  100%=      5-min Rain = 0
KARS 092300Z 25005KT M01/M01 A3034 RMK A01 T10101011  RH  100%=      5-min Rain = 0
KARS 092305Z 24005KT M01/M01 A3034 RMK A01 T10101011  RH  100%=      5-min Rain = 0
KARS 092310Z 24005KT M01/M01 A3034 RMK A01 T10101012  RH  100%=      5-min Rain = 0
KARS 092315Z 24004KT M01/M01 A3034 RMK A01 T10121013  RH  100%=      5-min Rain = 0
KARS 092320Z 24004KT M01/M01 A3034 RMK A01 T10121013  RH  100%=      5-min Rain = 0
KARS 092325Z 24004KT M01/M02 A3034 RMK A01 T10141015  RH  100%=      5-min Rain = 0
KARS 092330Z 23004KT M02/M02 A3034 RMK A01 T10161018  RH  100%=      5-min Rain = 0
KARS 092335Z 22004KT M02/M02 A3034 RMK A01 T10161017  RH  100%=      5-min Rain = 0
KARS 092340Z 22005KT M02/M02 A3034 RMK A01 T10191020  RH  100%=      5-min Rain = 0
KARS 092345Z 22005KT M02/M02 A3034 RMK A01 T10221023  RH  100%=      5-min Rain = 0
KARS 092350Z 22005KT M03/M03 A3034 RMK A01 T10261026  RH  100%=      5-min Rain = 0
KARS 092355Z 22006KT M03/M03 A3033 RMK A01 T10291030  RH  100%=      5-min Rain = 0
KARS 100000Z 22007KT M03/M04 A3034 RMK A01 T10341035  RH  100%=      5-min Rain = 0
KARS 100005Z 22007KT M04/M04 A3034 RMK A01 T10381039  RH  100%=      5-min Rain = 0
KARS 100010Z 23008KT M04/M04 A3034 RMK A01 T10391039  RH  100%=      5-min Rain = 0
KARS 100015Z 24007KT M04/M04 A3034 RMK A01 T10351036  RH  100%=      5-min Rain = 0
KARS 100020Z 24006KT M03/M03 A3034 RMK A01 T10311032  RH  100%=      5-min Rain = 0
KARS 100025Z 24005KT M03/M03 A3035 RMK A01 T10321032  RH  100%=      5-min Rain = 0
KARS 100030Z 25005KT M04/M04 A3035 RMK A01 T10361036  RH  100%=      5-min Rain = 0
KARS 100035Z 26004KT M04/M04 A3035 RMK A01 T10391040  RH  100%=      5-min Rain = 0
KARS 100040Z 26004KT M04/M04 A3035 RMK A01 T10391039  RH  100%=      5-min Rain = 0
KARS 100045Z 26004KT M04/M04 A3035 RMK A01 T10401040  RH  100%=      5-min Rain = 0
KARS 100050Z 25004KT M04/M04 A3035 RMK A01 T10411042  RH  100%=      5-min Rain = 0
KARS 100055Z 26005KT M04/M04 A3035 RMK A01 T10441044  RH  100%=      5-min Rain = 0
KARS 100100Z 27005KT M05/M05 A3035 RMK A01 T10451045  RH  100%=      5-min Rain = 0
KARS 100105Z 27005KT M05/M05 A3035 RMK A01 T10451046  RH  100%=      5-min Rain = 0
KARS 100110Z 27006KT M05/M05 A3035 RMK A01 T10471048  RH  100%=      5-min Rain = 0
KARS 100115Z 27006KT M05/M05 A3036 RMK A01 T10521052  RH  100%=      5-min Rain = 0
KARS 100120Z 27007KT M05/M05 A3036 RMK A01 T10491050  RH  100%=      5-min Rain = 0
KARS 100125Z 27006KT M05/M05 A3036 RMK A01 T10501050  RH  100%=      5-min Rain = 0
KARS 100130Z 27006KT M05/M05 A3036 RMK A01 T10501050  RH  100%=      5-min Rain = 0
KARS 100135Z 27006KT M05/M05 A3037 RMK A01 T10501050  RH  100%=      5-min Rain = 0
KARS 100140Z 27005KT M05/M05 A3037 RMK A01 T10501051  RH  100%=      5-min Rain = 0
KARS 100145Z 27005KT M05/M05 A3037 RMK A01 T10531053  RH  100%=      5-min Rain = 0
KARS 100150Z 28005KT M05/M05 A3037 RMK A01 T10511051  RH  100%=      5-min Rain = 0
KARS 100155Z 28007KT M05/M05 A3037 RMK A01 T10461047  RH  100%=      5-min Rain = 0
KARS 100200Z 28006KT M05/M05 A3037 RMK A01 T10461046  RH  100%=      5-min Rain = 0
KARS 100205Z 29006KT M05/M05 A3037 RMK A01 T10461047  RH  100%=      5-min Rain = 0
KARS 100210Z 29007KT M05/M05 A3037 RMK A01 T10491049  RH  100%=      5-min Rain = 0
KARS 100215Z 29007KT M05/M05 A3037 RMK A01 T10511051  RH  100%=      5-min Rain = 0
KARS 100220Z 29007KT M05/M05 A3037 RMK A01 T10501051  RH  100%=      5-min Rain = 0
KARS 100225Z 29007KT M05/M05 A3037 RMK A01 T10491050  RH  100%=      5-min Rain = 0
KARS 100230Z 29007KT M05/M05 A3038 RMK A01 T10511052  RH  100%=      5-min Rain = 0
KARS 100235Z 29007KT M05/M05 A3038 RMK A01 T10491050  RH  100%=      5-min Rain = 0
KARS 100240Z 28007KT M05/M05 A3038 RMK A01 T10461047  RH  100%=      5-min Rain = 0
KARS 100245Z 28008KT M06/M06 A3038 RMK A01 T10551056  RH  100%=      5-min Rain = 0
KARS 100250Z 28008KT M06/M06 A3038 RMK A01 T10571058  RH  100%=      5-min Rain = 0
KARS 100255Z 28008KT M05/M05 A3038 RMK A01 T10521052  RH  100%=      5-min Rain = 0
KARS 100300Z 28008KT M05/M05 A3038 RMK A01 T10531054  RH  100%=      5-min Rain = 0
KARS 100305Z 29008KT M05/M05 A3038 RMK A01 T10541054  RH  100%=      5-min Rain = 0
KARS 100310Z 28008KT M05/M05 A3038 RMK A01 T10521052  RH  100%=      5-min Rain = 0
KARS 100315Z 28008KT M06/M06 A3038 RMK A01 T10581058  RH  100%=      5-min Rain = 0
KARS 100320Z 28009KT M06/M06 A3038 RMK A01 T10571058  RH  100%=      5-min Rain = 0
KARS 100325Z 28008KT M06/M06 A3038 RMK A01 T10551055  RH  100%=      5-min Rain = 0
KARS 100330Z 28008KT M05/M05 A3038 RMK A01 T10531054  RH  100%=      5-min Rain = 0
KARS 100335Z 29008KT M06/M06 A3038 RMK A01 T10551056  RH  100%=      5-min Rain = 0
KARS 100340Z 29008KT M05/M05 A3038 RMK A01 T10521053  RH  100%=      5-min Rain = 0
KARS 100345Z 28008KT M05/M05 A3038 RMK A01 T10541054  RH  100%=      5-min Rain = 0
KARS 100350Z 28008KT M06/M06 A3038 RMK A01 T10571058  RH  100%=      5-min Rain = 0
KARS 100355Z 28008KT M06/M06 A3038 RMK A01 T10601060  RH  100%=      5-min Rain = 0
KARS 100400Z 28008KT M06/M06 A3038 RMK A01 T10601061  RH  100%=      5-min Rain = 0
KARS 100405Z 28008KT M06/M06 A3038 RMK A01 T10591060  RH  100%=      5-min Rain = 0
KARS 100410Z 28007KT M06/M06 A3038 RMK A01 T10611061  RH  100%=      5-min Rain = 0
KARS 100415Z 28008KT M06/M06 A3038 RMK A01 T10621062  RH  100%=      5-min Rain = 0
KARS 100420Z 27008KT M06/M06 A3038 RMK A01 T10611062  RH  100%=      5-min Rain = 0
KARS 100425Z 28008KT M06/M06 A3038 RMK A01 T10611061  RH  100%=      5-min Rain = 0
KARS 100430Z 28008KT M06/M06 A3038 RMK A01 T10561056  RH  100%=      5-min Rain = 0
KARS 100435Z 28008KT M05/M05 A3038 RMK A01 T10541054  RH  100%=      5-min Rain = 0
KARS 100440Z 28008KT M05/M05 A3038 RMK A01 T10541054  RH  100%=      5-min Rain = 0
KARS 100445Z 28008KT M06/M06 A3039 RMK A01 T10551056  RH  100%=      5-min Rain = 0
KARS 100450Z 28008KT M06/M06 A3039 RMK A01 T10581058  RH  100%=      5-min Rain = 0
KARS 100455Z 28009KT M06/M06 A3039 RMK A01 T10551055  RH  100%=      5-min Rain = 0
KARS 100500Z 28009KT M05/M05 A3039 RMK A01 T10541054  RH  100%=      5-min Rain = 0
KARS 100505Z 28009KT M05/M05 A3039 RMK A01 T10541054  RH  100%=      5-min Rain = 0
KARS 100510Z 28009KT M05/M05 A3039 RMK A01 T10521052  RH  100%=      5-min Rain = 0
KARS 100515Z 29009KT M05/M05 A3039 RMK A01 T10511052  RH  100%=      5-min Rain = 0
KARS 100520Z 29009KT M05/M05 A3038 RMK A01 T10501050  RH  100%=      5-min Rain = 0
KARS 100525Z 29009KT M05/M05 A3038 RMK A01 T10491049  RH  100%=      5-min Rain = 0
KARS 100530Z 29009KT M05/M05 A3038 RMK A01 T10491050  RH  100%=      5-min Rain = 0
KARS 100535Z 29010KT M05/M05 A3038 RMK A01 T10481049  RH  100%=      5-min Rain = 0
KARS 100540Z 29010KT M05/M05 A3038 RMK A01 T10451046  RH  100%=      5-min Rain = 0
KARS 100545Z 29009KT M05/M05 A3038 RMK A01 T10491049  RH  100%=      5-min Rain = 0
KARS 100550Z 29009KT M05/M05 A3037 RMK A01 T10501051  RH  100%=      5-min Rain = 0
KARS 100555Z 29009KT M05/M05 A3038 RMK A01 T10491050  RH  100%=      5-min Rain = 0

Page generated in 0.0091 seconds.